Zuni Pueblo, New Mexico
Current Conditions -  °F | °C
As of 10:53 PM on Friday 28 Nov 2014 (Local Time) from KGUP Reporting Station
Clear Clear  
Wind Chill: 26°   Ceiling: Unl
Heat Index: 31°   Visibility: 10mi
Dew Point:   Wind: 5mph
Humidity: 33%   Direction: 70°ENE
Pressure: 30.11"   Gusts: NA
Location:  35.0898°N, 108.763°W
Report Text: KGUP 290553Z AUTO 07004KT 10SM CLR M01/M15 A3011 RMK AO2 SLP161 T10061150 10150 21033 58002
Loading
Personal Weather Stations






























Interactive Weather Map New forecast layout! Learn more

10-Day Weather Forecast

Advertisements
Track Severe Weather on mobile